createdAt,value
2023-05-10T04:04:40.075Z,100716.38
2023-05-10T04:07:43.008Z,100716.38
2023-05-10T04:10:45.283Z,100717.63
2023-05-10T04:13:47.840Z,100714.03
2023-05-10T04:16:50.151Z,100709.25
2023-05-10T04:19:55.485Z,100706.53
2023-05-10T04:22:57.587Z,100702.31
2023-05-10T04:26:01.504Z,100707.31
2023-05-10T04:29:03.638Z,100713.94
2023-05-10T04:32:06.033Z,100713.03
2023-05-10T04:35:08.505Z,100715.78
2023-05-10T04:38:11.060Z,100717.31
2023-05-10T04:41:13.195Z,100714.50
2023-05-10T04:44:15.585Z,100709.31
2023-05-10T04:47:17.756Z,100719.63
2023-05-10T04:50:20.208Z,100713.56
2023-05-10T04:53:22.323Z,100717.94
2023-05-10T04:56:24.763Z,100713.72
2023-05-10T04:59:27.425Z,100712.84
2023-05-10T05:02:29.857Z,100711.16
2023-05-10T05:05:32.200Z,100713.09
2023-05-10T05:08:34.530Z,100713.72
2023-05-10T05:11:36.812Z,100719.09
2023-05-10T05:14:39.326Z,100711.37
2023-05-10T05:17:41.577Z,100724.56
2023-05-10T05:20:44.011Z,100722.75
2023-05-10T05:23:46.900Z,100717.69
2023-05-10T05:26:49.697Z,100729.28
2023-05-10T05:29:53.316Z,100727.69
2023-05-10T05:32:55.778Z,100734.47
2023-05-10T05:35:59.164Z,100733.16
2023-05-10T05:39:03.177Z,100729.66
2023-05-10T05:42:06.257Z,100739.13
2023-05-10T05:45:15.121Z,100739.22
2023-05-10T05:48:19.193Z,100745.94
2023-05-10T05:51:23.713Z,100737.75
2023-05-10T05:54:26.406Z,100741.53
2023-05-10T05:57:28.800Z,100744.91
2023-05-10T06:00:30.960Z,100747.69
2023-05-10T06:03:37.031Z,100744.59
2023-05-10T06:06:39.698Z,100752.00
2023-05-10T06:09:42.123Z,100745.34
2023-05-10T06:12:44.320Z,100748.84
2023-05-10T06:15:47.292Z,100756.53
2023-05-10T06:18:49.932Z,100754.34
2023-05-10T06:21:53.848Z,100757.75
2023-05-10T06:24:56.256Z,100761.94
2023-05-10T06:27:58.998Z,100762.72
2023-05-10T06:31:02.970Z,100757.47
2023-05-10T06:34:05.933Z,100762.94
2023-05-10T06:37:08.056Z,100762.75
2023-05-10T06:40:10.900Z,100768.19
2023-05-10T06:43:13.037Z,100758.31
2023-05-10T06:46:15.789Z,100758.31
2023-05-10T06:49:18.063Z,100754.22
2023-05-10T06:52:21.187Z,100751.69
2023-05-10T06:55:26.285Z,100756.31
2023-05-10T06:58:28.803Z,100752.31
2023-05-10T07:01:31.620Z,100748.06
2023-05-10T07:04:34.941Z,100744.03
2023-05-10T07:07:37.194Z,100744.03
2023-05-10T07:10:39.663Z,100749.31
2023-05-10T07:13:45.031Z,100738.16
2023-05-10T07:16:48.097Z,100745.03
2023-05-10T07:19:50.233Z,100741.34
2023-05-10T07:22:52.650Z,100743.09
2023-05-10T07:25:55.008Z,100744.03
2023-05-10T07:28:57.425Z,100741.69
2023-05-10T07:31:59.749Z,100740.22
2023-05-10T07:35:02.163Z,100734.97
2023-05-10T07:38:04.475Z,100730.31
2023-05-10T07:41:07.056Z,100730.53
2023-05-10T07:44:09.224Z,100732.59
2023-05-10T07:47:11.935Z,100734.03
2023-05-10T07:50:14.136Z,100727.00
2023-05-10T07:53:17.250Z,100732.75
2023-05-10T07:56:31.100Z,100731.63
2023-05-10T07:59:34.179Z,100746.13
2023-05-10T08:02:36.714Z,100740.06
2023-05-10T08:05:39.193Z,100739.72
2023-05-10T08:08:41.376Z,100741.59
2023-05-10T08:11:43.799Z,100732.06
2023-05-10T08:14:46.180Z,100728.91
2023-05-10T08:17:50.004Z,100732.28
2023-05-10T08:20:52.427Z,100727.03
2023-05-10T08:23:55.201Z,100739.78
2023-05-10T08:27:07.003Z,100732.91
2023-05-10T08:30:10.041Z,100732.59
2023-05-10T08:33:13.534Z,100723.69
2023-05-10T08:36:20.814Z,100726.09
2023-05-10T08:39:30.352Z,100734.84
2023-05-10T08:42:39.172Z,100726.53
2023-05-10T08:45:44.386Z,100717.59
2023-05-10T08:48:48.308Z,100722.72
2023-05-10T08:51:57.441Z,100716.19
2023-05-10T08:55:00.738Z,100721.47
2023-05-10T08:58:04.592Z,100714.75
2023-05-10T09:01:08.394Z,100720.78
2023-05-10T09:04:11.581Z,100724.94
2023-05-10T09:07:14.858Z,100712.34
2023-05-10T09:10:17.245Z,100726.06
2023-05-10T09:13:20.634Z,100717.78
2023-05-10T09:16:23.329Z,100717.94
2023-05-10T09:19:25.861Z,100718.87
2023-05-10T09:22:28.285Z,100718.87
2023-05-10T09:25:30.779Z,100716.47
2023-05-10T09:28:52.116Z,100714.09
2023-05-10T09:31:57.368Z,100709.66
2023-05-10T09:35:07.382Z,100709.75
2023-05-10T09:38:11.412Z,100705.91
2023-05-10T09:41:24.078Z,100706.16
2023-05-10T09:44:27.045Z,100701.94
2023-05-10T09:47:29.216Z,100701.47
2023-05-10T09:50:32.191Z,100701.81
2023-05-10T09:53:34.342Z,100703.22
2023-05-10T09:56:39.810Z,100695.72
2023-05-10T09:59:44.291Z,100702.63
2023-05-10T10:02:49.048Z,100696.31
2023-05-10T10:05:52.233Z,100694.37
2023-05-10T10:08:56.751Z,100688.63
2023-05-10T10:12:00.961Z,100680.87
2023-05-10T10:15:05.568Z,100683.22
2023-05-10T10:18:13.149Z,100682.97
2023-05-10T10:21:17.702Z,100676.25
2023-05-10T10:24:20.759Z,100671.37
2023-05-10T10:27:29.526Z,100671.47
2023-05-10T10:30:44.652Z,100672.09
2023-05-10T10:34:10.596Z,100663.00
2023-05-10T10:37:13.184Z,100657.22
2023-05-10T10:40:26.886Z,100658.53
2023-05-10T10:43:30.390Z,100663.06
2023-05-10T10:46:35.348Z,100662.28
2023-05-10T10:49:40.857Z,100655.69
2023-05-10T10:52:50.340Z,100655.69
2023-05-10T10:56:07.164Z,100652.06
2023-05-10T10:59:09.824Z,100653.50
2023-05-10T11:02:36.228Z,100641.41
2023-05-10T11:05:38.534Z,100627.69
2023-05-10T11:08:44.860Z,100625.34
2023-05-10T11:11:52.704Z,100644.97
2023-05-10T11:14:58.800Z,100634.97
2023-05-10T11:18:17.216Z,100625.28
2023-05-10T11:21:19.751Z,100621.06
2023-05-10T11:24:24.148Z,100614.53
2023-05-10T11:27:26.898Z,100622.88
2023-05-10T11:30:29.553Z,100608.56
2023-05-10T11:33:44.964Z,100608.59
2023-05-10T11:36:52.382Z,100616.19
2023-05-10T11:39:56.187Z,100604.41
2023-05-10T11:42:58.524Z,100602.72
2023-05-10T11:46:01.095Z,100606.16
2023-05-10T11:49:05.506Z,100605.88
2023-05-10T11:52:09.371Z,100605.84
2023-05-10T11:55:11.721Z,100601.75
2023-05-10T11:58:14.440Z,100595.50
2023-05-10T12:01:16.749Z,100607.91
2023-05-10T12:04:19.818Z,100598.66
2023-05-10T12:07:22.228Z,100602.87
2023-05-10T12:10:28.127Z,100599.41
2023-05-10T12:13:30.993Z,100601.91
2023-05-10T12:16:33.546Z,100609.25
2023-05-10T12:19:40.235Z,100609.91
2023-05-10T12:22:52.895Z,100601.38
2023-05-10T12:26:02.264Z,100602.44
2023-05-10T12:29:16.812Z,100597.44
2023-05-10T12:32:19.078Z,100595.25
2023-05-10T12:35:22.987Z,100585.69
2023-05-10T12:38:35.474Z,100585.81
2023-05-10T12:41:39.050Z,100584.91
2023-05-10T12:44:42.472Z,100582.41
2023-05-10T12:47:44.928Z,100587.56
2023-05-10T12:50:47.549Z,100580.69
2023-05-10T12:53:49.972Z,100570.22
2023-05-10T12:56:52.082Z,100570.78
2023-05-10T12:59:55.030Z,100561.16
2023-05-10T13:02:57.180Z,100560.62
2023-05-10T13:05:59.628Z,100559.25
2023-05-10T13:09:01.720Z,100553.78
2023-05-10T13:12:04.401Z,100548.16
2023-05-10T13:15:07.675Z,100539.88
2023-05-10T13:18:10.486Z,100548.19
2023-05-10T13:21:12.714Z,100545.91
2023-05-10T13:24:15.248Z,100536.06
2023-05-10T13:27:17.383Z,100528.81
2023-05-10T13:30:19.761Z,100529.38
2023-05-10T13:33:21.910Z,100528.13
2023-05-10T13:36:24.285Z,100526.75
2023-05-10T13:39:26.449Z,100524.38
2023-05-10T13:42:29.368Z,100519.13
2023-05-10T13:45:31.524Z,100519.94
2023-05-10T13:48:34.097Z,100520.72
2023-05-10T13:51:36.748Z,100513.81
2023-05-10T13:54:39.280Z,100513.03
2023-05-10T13:57:41.704Z,100508.25
2023-05-10T14:00:44.118Z,100506.91
2023-05-10T14:03:46.587Z,100505.53
2023-05-10T14:06:49.023Z,100501.69
2023-05-10T14:09:51.519Z,100497.25
2023-05-10T14:12:53.629Z,100490.00
2023-05-10T14:15:56.405Z,100483.00
2023-05-10T14:18:58.544Z,100486.28
2023-05-10T14:22:01.300Z,100484.81
2023-05-10T14:25:03.776Z,100476.75
2023-05-10T14:28:06.588Z,100477.53
2023-05-10T14:31:08.703Z,100475.38
2023-05-10T14:34:11.116Z,100477.31
2023-05-10T14:37:14.937Z,100479.47
2023-05-10T14:40:17.996Z,100474.94
2023-05-10T14:43:20.117Z,100472.56
2023-05-10T14:46:22.629Z,100468.78
2023-05-10T14:49:26.651Z,100474.44
2023-05-10T14:52:29.013Z,100466.53
2023-05-10T14:55:31.393Z,100467.44
2023-05-10T14:58:34.403Z,100456.41
2023-05-10T15:01:38.640Z,100458.00
2023-05-10T15:04:41.253Z,100462.84
2023-05-10T15:07:44.682Z,100468.53
2023-05-10T15:10:47.653Z,100461.88
2023-05-10T15:13:49.758Z,100476.63
2023-05-10T15:16:52.143Z,100468.25
2023-05-10T15:19:54.212Z,100474.81
2023-05-10T15:22:56.608Z,100473.50
